Time;durP1;ratioP1;P1;durP2;ratioP2;P2;SDS_P1;SDS_P2;PMS_P1;PMS_P2;Temp;Humidity;BMP_temperature;BMP_pressure;BME280_temperature;BME280_humidity;BME280_pressure;Samples;Min_cycle;Max_cycle;Signal;HPM_P1;HPM_P2
2022/10/01 00:00:53;;;;;;;12.80;7.93;;;7.20;1.00;;;;;;5077193;28;20162;-87
2022/10/01 00:13:25;;;;;;;16.80;8.70;;;7.20;1.00;;;;;;5076693;28;20413;-87
2022/10/01 00:15:59;;;;;;;12.60;7.77;;;7.30;1.00;;;;;;5092792;28;20425;-87
2022/10/01 00:25:15;;;;;;;15.73;8.30;;;7.40;1.00;;;;;;5080377;28;20404;-88
2022/10/01 00:31:02;;;;;;;13.53;7.90;;;7.40;1.00;;;;;;5076217;28;20943;-88
2022/10/01 00:43:38;;;;;;;13.67;8.37;;;7.50;1.00;;;;;;5084781;28;20434;-88
2022/10/01 00:46:45;;;;;;;17.87;8.23;;;7.50;1.00;;;;;;5095491;28;20824;-88
2022/10/01 00:49:30;;;;;;;12.90;8.77;;;7.60;1.00;;;;;;5081972;28;20490;-88
2022/10/01 00:55:57;;;;;;;13.53;8.57;;;7.60;1.00;;;;;;5076141;28;20497;-88
2022/10/01 01:02:15;;;;;;;14.60;7.87;;;7.70;1.00;;;;;;5076005;28;20400;-88
2022/10/01 01:05:21;;;;;;;12.40;8.53;;;7.70;1.00;;;;;;5079514;28;20427;-88
2022/10/01 01:11:26;;;;;;;12.87;7.57;;;7.80;1.00;;;;;;5075949;28;20935;-88
2022/10/01 01:17:22;;;;;;;13.60;8.13;;;7.90;1.00;;;;;;5075987;28;20372;-87
2022/10/01 01:20:15;;;;;;;13.40;7.77;;;7.90;1.00;;;;;;5095582;28;20403;-88
2022/10/01 01:23:14;;;;;;;11.70;8.10;;;7.90;1.00;;;;;;5074912;28;20410;-88
2022/10/01 01:36:39;;;;;;;23.37;9.47;;;8.10;1.00;;;;;;5076974;28;20432;-88
2022/10/01 01:42:31;;;;;;;14.50;10.97;;;8.20;1.00;;;;;;5074771;28;20400;-88
2022/10/01 01:45:00;;;;;;;19.70;11.23;;;8.20;1.00;;;;;;5076917;28;20448;-88
2022/10/01 01:54:10;;;;;;;20.00;13.67;;;8.60;2.90;;;;;;5089872;28;20439;-88
2022/10/01 02:07:18;;;;;;;24.10;14.90;;;9.10;26.30;;;;;;5074887;28;20456;-88
2022/10/01 02:19:59;;;;;;;18.63;10.73;;;9.60;16.50;;;;;;5075130;28;20407;-88
2022/10/01 02:23:02;;;;;;;17.60;11.13;;;9.60;12.00;;;;;;5076793;28;20404;-88
2022/10/01 02:25:49;;;;;;;15.93;10.33;;;9.70;10.50;;;;;;5078321;28;20554;-88
2022/10/01 02:32:03;;;;;;;15.40;9.60;;;9.80;3.80;;;;;;5094196;28;20399;-88
2022/10/01 02:34:30;;;;;;;18.80;10.07;;;9.90;1.00;;;;;;5083968;28;20912;-88
2022/10/01 02:37:23;;;;;;;17.23;9.73;;;9.90;1.00;;;;;;5072648;28;20931;-78
2022/10/01 02:39:51;;;;;;;13.77;9.20;;;10.00;1.00;;;;;;5074241;28;20776;-79
2022/10/01 02:42:19;;;;;;;11.10;7.70;;;10.10;1.00;;;;;;5080067;28;20424;-79
2022/10/01 02:45:30;;;;;;;11.97;8.00;;;10.20;1.00;;;;;;5087293;28;20440;-79
2022/10/01 02:48:07;;;;;;;13.03;7.33;;;10.20;1.00;;;;;;5089268;28;20538;-79
2022/10/01 02:50:52;;;;;;;10.10;7.50;;;10.20;1.00;;;;;;5078826;28;20420;-79
2022/10/01 02:53:41;;;;;;;9.40;6.63;;;10.20;1.00;;;;;;5075280;28;20423;-79
2022/10/01 02:56:13;;;;;;;12.70;7.60;;;10.30;1.00;;;;;;5086926;28;20428;-78
2022/10/01 02:58:46;;;;;;;11.70;6.50;;;10.30;1.00;;;;;;5073431;28;20799;-79
2022/10/01 03:01:21;;;;;;;7.00;6.00;;;10.40;1.00;;;;;;5073032;28;21001;-79
2022/10/01 03:04:21;;;;;;;9.80;5.97;;;10.50;1.00;;;;;;5083567;28;20412;-78
2022/10/01 03:10:39;;;;;;;9.70;5.73;;;10.60;1.00;;;;;;5079709;28;20392;-89
2022/10/01 03:16:27;;;;;;;9.73;5.70;;;10.60;1.00;;;;;;5094037;28;20407;-88
2022/10/01 03:18:57;;;;;;;7.70;5.57;;;10.60;1.00;;;;;;5080608;28;20976;-88
2022/10/01 03:25:27;;;;;;;5.97;4.87;;;10.70;1.00;;;;;;5080106;28;20412;-88
2022/10/01 03:31:39;;;;;;;4.83;4.27;;;10.80;1.00;;;;;;5083680;28;20910;-88
2022/10/01 03:37:33;;;;;;;9.07;5.87;;;10.80;1.00;;;;;;5085821;28;20423;-78
2022/10/01 03:40:27;;;;;;;7.23;5.23;;;10.90;1.00;;;;;;5082434;28;20412;-78
2022/10/01 03:43:03;;;;;;;12.00;5.20;;;10.90;1.00;;;;;;5073077;28;20527;-78
2022/10/01 03:45:46;;;;;;;6.77;5.33;;;11.00;1.00;;;;;;5071732;28;20974;-79
2022/10/01 03:48:45;;;;;;;9.83;5.57;;;10.90;1.00;;;;;;5072739;28;20552;-78
2022/10/01 03:51:16;;;;;;;7.60;4.90;;;10.90;1.00;;;;;;5082305;28;20420;-78
2022/10/01 03:53:42;;;;;;;7.10;5.13;;;11.00;1.00;;;;;;5088195;28;20416;-78
2022/10/01 03:56:16;;;;;;;6.73;5.13;;;11.00;1.00;;;;;;5088363;28;20444;-78
2022/10/01 03:58:57;;;;;;;7.47;5.03;;;11.00;1.00;;;;;;5074798;28;20187;-78
2022/10/01 04:01:33;;;;;;;6.83;5.30;;;11.00;1.00;;;;;;5073015;28;20920;-78
2022/10/01 04:04:21;;;;;;;8.60;4.73;;;11.00;1.00;;;;;;5084479;28;20820;-78
2022/10/01 04:10:59;;;;;;;6.50;5.20;;;11.10;1.00;;;;;;5091349;28;20752;-88
2022/10/01 04:14:09;;;;;;;8.57;5.23;;;11.10;1.00;;;;;;5084316;28;20462;-87
2022/10/01 04:19:59;;;;;;;6.80;5.10;;;10.90;1.00;;;;;;5085036;28;20431;-87
2022/10/01 04:22:57;;;;;;;12.37;5.30;;;10.90;1.00;;;;;;5076610;28;20425;-79
2022/10/01 04:25:40;;;;;;;7.07;5.23;;;10.90;1.00;;;;;;5092024;28;20413;-80
2022/10/01 04:28:28;;;;;;;6.47;4.90;;;10.90;1.00;;;;;;5076317;28;20444;-79
2022/10/01 04:33:42;;;;;;;7.40;5.90;;;10.80;1.00;;;;;;5082236;28;20416;-80
2022/10/01 04:36:51;;;;;;;6.20;5.40;;;10.70;1.00;;;;;;5076187;28;20425;-88
2022/10/01 04:46:39;;;;;;;7.70;5.50;;;10.70;1.00;;;;;;5081369;28;20392;-87
2022/10/01 04:49:15;;;;;;;10.50;6.27;;;10.70;1.00;;;;;;5075426;28;20433;-87
2022/10/01 04:51:51;;;;;;;11.57;5.57;;;10.70;1.00;;;;;;5095902;28;20443;-79
2022/10/01 04:54:33;;;;;;;6.90;5.67;;;10.70;1.00;;;;;;5081291;28;20786;-78
2022/10/01 04:56:59;;;;;;;11.37;5.60;;;10.70;1.00;;;;;;5082575;28;20411;-78
2022/10/01 04:59:39;;;;;;;10.80;6.37;;;10.70;1.00;;;;;;5090992;28;20408;-79
2022/10/01 05:02:09;;;;;;;9.17;6.13;;;10.70;1.00;;;;;;5075024;28;20183;-79
2022/10/01 05:04:40;;;;;;;7.50;5.77;;;10.70;1.00;;;;;;5075371;28;20516;-79
2022/10/01 05:07:21;;;;;;;7.60;5.67;;;10.70;1.00;;;;;;5086736;28;20969;-79
2022/10/01 05:09:51;;;;;;;6.97;5.67;;;10.60;1.00;;;;;;5093554;28;20954;-79
2022/10/01 05:12:27;;;;;;;8.07;5.27;;;10.60;1.00;;;;;;5081273;28;20946;-79
2022/10/01 05:14:57;;;;;;;7.30;5.70;;;10.60;1.00;;;;;;5084847;28;20452;-79
2022/10/01 05:17:23;;;;;;;7.20;5.60;;;10.60;1.00;;;;;;5079002;28;20429;-76
2022/10/01 05:19:51;;;;;;;6.60;5.30;;;10.50;1.00;;;;;;5089965;28;20437;-76
2022/10/01 05:22:57;;;;;;;8.93;5.93;;;10.50;1.00;;;;;;5075447;28;20179;-79
2022/10/01 05:25:57;;;;;;;8.80;5.40;;;10.60;1.00;;;;;;5083847;28;20420;-79
2022/10/01 05:28:43;;;;;;;9.40;6.20;;;10.50;1.00;;;;;;5085544;28;20455;-79
2022/10/01 05:31:23;;;;;;;10.77;5.30;;;10.60;1.00;;;;;;5083874;28;20424;-79
2022/10/01 05:34:42;;;;;;;9.17;5.03;;;10.50;1.00;;;;;;5077973;28;20393;-79
2022/10/01 05:37:11;;;;;;;7.90;4.93;;;10.50;1.00;;;;;;5080843;28;20452;-80
2022/10/01 05:39:39;;;;;;;5.87;5.20;;;10.50;1.70;;;;;;5081355;28;20426;-80
2022/10/01 05:42:39;;;;;;;6.47;4.90;;;10.50;1.20;;;;;;5089797;28;20413;-79
2022/10/01 05:45:34;;;;;;;6.70;5.10;;;10.50;1.00;;;;;;5082627;28;20416;-79
2022/10/01 05:48:02;;;;;;;6.93;5.20;;;10.50;1.00;;;;;;5074322;28;20457;-79
2022/10/01 05:50:41;;;;;;;6.43;5.33;;;10.40;3.90;;;;;;5084487;28;20426;-79
2022/10/01 05:53:16;;;;;;;7.80;5.50;;;10.50;6.50;;;;;;5076127;28;20416;-79
2022/10/01 05:55:46;;;;;;;8.53;4.70;;;10.50;7.60;;;;;;5094865;28;20810;-80
2022/10/01 05:58:13;;;;;;;6.50;5.37;;;10.50;7.80;;;;;;5081138;28;20401;-79
2022/10/01 06:00:57;;;;;;;7.50;4.90;;;10.40;9.70;;;;;;5085681;28;20736;-79
2022/10/01 06:03:34;;;;;;;13.13;4.87;;;10.40;13.60;;;;;;5078804;28;20506;-79
2022/10/01 06:06:27;;;;;;;6.67;4.73;;;10.50;14.50;;;;;;5082459;28;20474;-80
2022/10/01 06:09:21;;;;;;;6.30;5.13;;;10.50;11.80;;;;;;5091536;28;20519;-79
2022/10/01 06:11:47;;;;;;;8.67;5.30;;;10.50;11.30;;;;;;5083961;28;20969;-79
2022/10/01 06:14:14;;;;;;;7.43;5.03;;;10.50;11.00;;;;;;5080419;28;20412;-79
2022/10/01 06:16:53;;;;;;;5.33;4.67;;;10.60;12.20;;;;;;5094056;28;20524;-79
2022/10/01 06:19:28;;;;;;;8.43;5.00;;;10.60;11.20;;;;;;5077575;28;20429;-80
2022/10/01 06:21:58;;;;;;;4.70;4.13;;;10.70;11.50;;;;;;5083437;28;20412;-80
2022/10/01 06:24:40;;;;;;;6.13;4.93;;;10.70;7.70;;;;;;5080951;28;20484;-80
2022/10/01 06:27:10;;;;;;;9.53;4.97;;;10.70;8.00;;;;;;5073509;28;20449;-81
2022/10/01 06:29:52;;;;;;;8.20;5.07;;;10.70;8.00;;;;;;5074116;28;20845;-88
2022/10/01 06:32:18;;;;;;;5.43;4.30;;;10.70;7.70;;;;;;5073749;28;20924;-86
2022/10/01 06:38:07;;;;;;;8.50;4.97;;;10.80;9.80;;;;;;5086669;28;20441;-86
2022/10/01 06:43:54;;;;;;;9.63;4.63;;;10.80;9.30;;;;;;5081207;28;20810;-86
2022/10/01 06:46:22;;;;;;;5.13;4.30;;;10.80;9.90;;;;;;5074373;28;20413;-85
2022/10/01 06:55:10;;;;;;;5.73;4.30;;;10.80;13.70;;;;;;5086397;28;20418;-80
2022/10/01 06:58:05;;;;;;;9.77;4.00;;;10.80;15.20;;;;;;5073594;28;20743;-81
2022/10/01 07:00:46;;;;;;;6.90;4.30;;;10.90;14.50;;;;;;5087105;28;20783;-82
2022/10/01 07:03:29;;;;;;;9.40;5.10;;;10.80;11.50;;;;;;5080990;28;20429;-82
2022/10/01 07:06:03;;;;;;;6.77;4.50;;;10.90;12.60;;;;;;5080050;28;20460;-81
2022/10/01 07:08:29;;;;;;;5.47;3.93;;;10.90;11.40;;;;;;5082620;28;20507;-81
2022/10/01 07:15:09;;;;;;;6.43;4.50;;;10.80;12.20;;;;;;5076969;28;20414;-86
2022/10/01 07:21:10;;;;;;;6.60;4.93;;;10.70;22.90;;;;;;5078378;28;20455;-86
2022/10/01 07:26:58;;;;;;;24.70;12.60;;;10.80;22.10;;;;;;5076963;28;20460;-79
2022/10/01 07:29:29;;;;;;;8.03;5.57;;;10.80;23.60;;;;;;5083767;28;20798;-79
2022/10/01 07:32:21;;;;;;;21.23;11.93;;;10.80;23.80;;;;;;5076522;28;20421;-79
2022/10/01 07:34:47;;;;;;;4.67;4.03;;;10.90;21.50;;;;;;5091726;28;20399;-78
2022/10/01 07:37:16;;;;;;;5.80;4.70;;;10.90;18.20;;;;;;5071530;28;20433;-79
2022/10/01 07:43:13;;;;;;;7.83;4.60;;;10.90;18.40;;;;;;5081540;28;20478;-80
2022/10/01 07:46:05;;;;;;;5.33;4.80;;;10.80;18.70;;;;;;5078192;28;20435;-79
2022/10/01 07:48:52;;;;;;;20.33;10.90;;;10.90;22.40;;;;;;5095761;28;20512;-81
2022/10/01 07:51:17;;;;;;;44.40;21.70;;;10.90;22.30;;;;;;5090172;28;20468;-80
2022/10/01 07:53:43;;;;;;;183.97;84.37;;;10.80;22.60;;;;;;5080781;28;20474;-79
2022/10/01 07:56:16;;;;;;;28.00;15.30;;;10.80;26.00;;;;;;5089443;28;20178;-85
2022/10/01 08:02:04;;;;;;;6.23;5.13;;;11.00;26.00;;;;;;5084713;28;20459;-88
2022/10/01 08:07:52;;;;;;;20.10;11.13;;;10.90;23.90;;;;;;5081137;28;20229;-90
2022/10/01 08:10:40;;;;;;;16.97;10.03;;;10.90;23.70;;;;;;5089292;28;20485;-80
2022/10/01 08:13:13;;;;;;;6.00;4.50;;;11.00;23.10;;;;;;5080045;28;20425;-79
2022/10/01 08:15:52;;;;;;;68.27;36.10;;;11.00;20.20;;;;;;5092904;28;21047;-80
2022/10/01 08:18:35;;;;;;;9.00;5.20;;;11.00;21.80;;;;;;5081250;28;20432;-79
2022/10/01 08:21:02;;;;;;;6.67;4.10;;;11.00;20.50;;;;;;5089293;28;20514;-79
2022/10/01 08:23:30;;;;;;;4.27;3.87;;;11.00;20.20;;;;;;5083115;28;20414;-79
2022/10/01 08:26:22;;;;;;;4.40;4.00;;;11.00;22.30;;;;;;5081182;28;20428;-91
2022/10/01 08:32:16;;;;;;;5.37;4.57;;;11.10;20.00;;;;;;5089837;28;20942;-88
2022/10/01 08:35:00;;;;;;;4.07;3.63;;;11.20;17.10;;;;;;5080944;28;20400;-90
2022/10/01 08:40:50;;;;;;;20.37;9.77;;;11.20;13.90;;;;;;5093392;28;20462;-90
2022/10/01 08:43:53;;;;;;;4.00;3.60;;;11.10;19.90;;;;;;5081904;28;20475;-90
2022/10/01 08:46:40;;;;;;;9.37;3.60;;;11.20;21.60;;;;;;5083262;28;20431;-88
2022/10/01 08:53:06;;;;;;;3.80;3.50;;;11.30;14.40;;;;;;5079116;28;20389;-90
2022/10/01 08:59:00;;;;;;;4.50;3.93;;;11.30;13.20;;;;;;5089576;28;20435;-90
2022/10/01 09:08:52;;;;;;;8.80;5.10;;;11.30;12.00;;;;;;5079347;28;20499;-87
2022/10/01 09:11:28;;;;;;;5.17;3.97;;;11.30;15.90;;;;;;5087261;28;20443;-88
2022/10/01 09:17:54;;;;;;;37.30;15.07;;;11.40;14.50;;;;;;5083237;28;20874;-89
2022/10/01 09:20:37;;;;;;;5.80;4.40;;;11.50;14.40;;;;;;5014451;28;20415;-89
2022/10/01 09:23:38;;;;;;;6.03;4.30;;;11.50;14.50;;;;;;5014126;28;20420;-88
2022/10/01 09:26:10;;;;;;;4.43;3.80;;;11.40;14.10;;;;;;5007968;28;20412;-88
2022/10/01 09:28:50;;;;;;;4.10;3.70;;;11.50;18.10;;;;;;5004102;28;20955;-87
2022/10/01 09:31:46;;;;;;;7.50;5.93;;;11.60;18.50;;;;;;5013493;28;20427;-88
2022/10/01 09:34:14;;;;;;;6.30;4.07;;;11.50;16.60;;;;;;5014079;28;20416;-88
2022/10/01 09:37:04;;;;;;;5.80;4.50;;;11.60;15.70;;;;;;4997459;28;20424;-89
2022/10/01 09:39:53;;;;;;;11.20;3.80;;;11.50;16.10;;;;;;5013183;28;20422;-87
2022/10/01 09:42:26;;;;;;;7.13;4.23;;;11.60;19.50;;;;;;5010947;28;20420;-81
2022/10/01 09:45:05;;;;;;;4.00;3.67;;;11.50;22.20;;;;;;4996382;28;20445;-80
2022/10/01 09:47:35;;;;;;;15.20;3.83;;;11.70;20.30;;;;;;5011806;28;20506;-80
2022/10/01 09:50:38;;;;;;;5.70;3.87;;;11.70;16.40;;;;;;5012173;28;20498;-80
2022/10/01 09:53:40;;;;;;;5.13;3.63;;;11.70;14.90;;;;;;4965125;28;20514;-81
2022/10/01 09:56:46;;;;;;;4.93;3.67;;;11.70;15.40;;;;;;4962046;28;20404;-81
2022/10/01 09:59:53;;;;;;;3.00;2.63;;;11.80;14.30;;;;;;4973027;28;20442;-81
2022/10/01 10:02:31;;;;;;;3.10;2.77;;;11.90;14.10;;;;;;4966767;28;20859;-80
2022/10/01 10:05:05;;;;;;;5.07;3.03;;;12.00;6.60;;;;;;4970676;28;20433;-80
2022/10/01 10:07:37;;;;;;;4.03;2.60;;;12.10;3.90;;;;;;4957524;28;20465;-81
2022/10/01 10:10:40;;;;;;;3.37;2.47;;;12.20;3.30;;;;;;4973524;28;20425;-81
2022/10/01 10:13:30;;;;;;;2.67;2.47;;;12.10;1.00;;;;;;4973505;28;20858;-81
2022/10/01 10:16:16;;;;;;;2.87;2.67;;;12.10;1.00;;;;;;4953805;29;20422;-80
2022/10/01 10:18:51;;;;;;;2.80;2.30;;;12.20;1.00;;;;;;4955996;28;20779;-80
2022/10/01 10:25:10;;;;;;;2.83;2.63;;;12.10;1.00;;;;;;4953922;29;20433;-80
2022/10/01 10:27:55;;;;;;;4.37;2.27;;;12.10;1.00;;;;;;4957061;28;20483;-88
2022/10/01 10:31:04;;;;;;;2.87;2.67;;;12.30;1.00;;;;;;4991609;28;20469;-87
2022/10/01 10:37:17;;;;;;;2.80;2.60;;;12.40;1.00;;;;;;5083163;28;20451;-89
2022/10/01 10:46:31;;;;;;;2.27;2.07;;;12.50;1.00;;;;;;5085920;28;20459;-89
2022/10/01 10:49:28;;;;;;;2.20;2.10;;;12.60;1.00;;;;;;5074248;28;20971;-89
2022/10/01 10:52:18;;;;;;;2.27;2.17;;;12.70;1.00;;;;;;5087829;28;20427;-88
2022/10/01 10:54:47;;;;;;;3.67;2.63;;;12.80;1.00;;;;;;5080601;28;20421;-89
2022/10/01 10:57:35;;;;;;;4.20;2.37;;;12.80;1.00;;;;;;5076900;28;20436;-86
2022/10/01 11:00:28;;;;;;;2.43;2.23;;;12.80;1.00;;;;;;5075977;28;20400;-78
2022/10/01 11:03:19;;;;;;;2.50;2.30;;;12.80;1.00;;;;;;5077727;28;20441;-78
2022/10/01 11:05:55;;;;;;;2.90;2.03;;;12.80;1.00;;;;;;5076019;28;20490;-77
2022/10/01 11:08:29;;;;;;;2.90;2.10;;;12.90;1.00;;;;;;5073365;28;20453;-77
2022/10/01 11:11:31;;;;;;;2.47;2.30;;;13.00;1.00;;;;;;5078598;28;20408;-79
2022/10/01 11:14:28;;;;;;;4.40;2.27;;;13.40;1.00;;;;;;5011691;28;20427;-80
2022/10/01 11:17:17;;;;;;;1.83;1.73;;;13.80;1.00;;;;;;5009908;28;20518;-79
2022/10/01 11:20:21;;;;;;;1.70;1.60;;;13.80;1.00;;;;;;5015510;28;20429;-79
2022/10/01 11:23:19;;;;;;;1.90;1.73;;;13.80;1.00;;;;;;4999137;28;20407;-77
2022/10/01 11:26:01;;;;;;;7.93;2.10;;;13.90;1.00;;;;;;4997900;28;20404;-77
2022/10/01 11:29:01;;;;;;;2.07;1.97;;;14.00;1.00;;;;;;5005377;28;20463;-77
2022/10/01 11:31:39;;;;;;;1.67;1.57;;;13.90;1.00;;;;;;4951661;29;20422;-77
2022/10/01 11:35:02;;;;;;;2.20;1.80;;;14.00;1.00;;;;;;4957131;28;20475;-78
2022/10/01 11:38:13;;;;;;;2.23;1.93;;;13.80;1.00;;;;;;4892409;29;20457;-79
2022/10/01 11:40:44;;;;;;;3.87;1.53;;;13.70;1.00;;;;;;4880963;29;20490;-79
2022/10/01 11:43:43;;;;;;;1.73;1.63;;;13.60;1.00;;;;;;4897968;29;20433;-79
2022/10/01 11:46:58;;;;;;;3.77;2.07;;;13.60;1.00;;;;;;4899854;29;20485;-89
2022/10/01 11:53:01;;;;;;;2.60;1.97;;;14.00;1.00;;;;;;4938481;29;20402;-90
2022/10/01 11:59:09;;;;;;;2.30;1.73;;;14.30;1.00;;;;;;4936399;29;20434;-79
2022/10/01 12:02:14;;;;;;;2.43;1.60;;;14.50;1.00;;;;;;4942588;29;20910;-79
2022/10/01 12:05:05;;;;;;;2.20;1.80;;;14.70;1.00;;;;;;4917971;29;20428;-79
2022/10/01 12:08:01;;;;;;;1.53;1.43;;;14.80;1.00;;;;;;4987021;28;20788;-79
2022/10/01 12:10:49;;;;;;;2.80;1.60;;;15.10;1.00;;;;;;5080590;28;20420;-80
2022/10/01 12:13:40;;;;;;;1.70;1.60;;;15.20;1.00;;;;;;5086696;28;20400;-80
2022/10/01 12:19:36;;;;;;;1.70;1.60;;;15.10;1.00;;;;;;5090527;28;20479;-90
2022/10/01 12:22:10;;;;;;;6.43;1.70;;;15.20;1.00;;;;;;5088535;28;20428;-89
2022/10/01 12:31:35;;;;;;;2.93;1.40;;;15.30;1.00;;;;;;5089195;28;20404;-83
2022/10/01 12:34:38;;;;;;;3.90;1.77;;;15.20;1.00;;;;;;5079944;28;20513;-84
2022/10/01 12:37:31;;;;;;;3.47;1.63;;;15.10;1.00;;;;;;5076459;28;20396;-81
2022/10/01 12:40:47;;;;;;;1.83;1.70;;;15.00;1.00;;;;;;5081028;28;20398;-81
2022/10/01 12:43:44;;;;;;;2.20;1.67;;;14.90;1.00;;;;;;5088917;28;20384;-81
2022/10/01 12:46:17;;;;;;;1.63;1.53;;;14.70;1.00;;;;;;5074800;28;20417;-83
2022/10/01 12:48:53;;;;;;;1.80;1.60;;;14.70;1.00;;;;;;5074350;28;20567;-81
2022/10/01 12:51:56;;;;;;;3.33;1.70;;;14.60;1.00;;;;;;5091055;28;20414;-81
2022/10/01 12:54:53;;;;;;;3.77;1.70;;;14.60;1.00;;;;;;5095184;28;20432;-81
2022/10/01 12:57:23;;;;;;;1.43;1.30;;;14.70;1.00;;;;;;5082110;28;20382;-82
2022/10/01 13:00:04;;;;;;;1.50;1.40;;;14.70;1.00;;;;;;5074733;28;20417;-80
2022/10/01 13:02:54;;;;;;;2.40;1.73;;;14.90;1.00;;;;;;5075588;28;20409;-81
2022/10/01 13:05:54;;;;;;;1.50;1.40;;;15.10;1.00;;;;;;5087854;28;20927;-81
2022/10/01 13:08:38;;;;;;;6.57;1.33;;;15.30;1.00;;;;;;5080872;28;20773;-80
2022/10/01 13:14:36;;;;;;;1.40;1.30;;;15.30;1.00;;;;;;5082766;28;20702;-81
2022/10/01 13:17:30;;;;;;;2.60;1.40;;;15.30;1.00;;;;;;5085660;28;20402;-82
2022/10/01 13:20:28;;;;;;;2.10;1.53;;;15.40;1.00;;;;;;5085084;28;20414;-81
2022/10/01 13:23:15;;;;;;;3.53;1.33;;;15.60;1.00;;;;;;5080487;28;20857;-81
2022/10/01 13:25:49;;;;;;;1.33;0.90;;;15.90;1.00;;;;;;5084042;28;20391;-79
2022/10/01 13:28:25;;;;;;;1.67;1.00;;;16.00;1.00;;;;;;5081148;28;20936;-78
2022/10/01 13:31:09;;;;;;;1.73;1.13;;;16.20;1.00;;;;;;5085495;28;20471;-81
2022/10/01 13:33:36;;;;;;;1.30;1.10;;;16.30;1.00;;;;;;5073543;28;20478;-80
2022/10/01 13:36:12;;;;;;;1.10;0.90;;;16.60;1.00;;;;;;5072790;28;20443;-79
2022/10/01 13:39:29;;;;;;;6.80;1.10;;;16.70;1.00;;;;;;5079902;28;20449;-81
2022/10/01 13:41:59;;;;;;;4.87;1.10;;;16.80;1.00;;;;;;5075098;28;20396;-80
2022/10/01 13:44:33;;;;;;;1.67;0.97;;;16.60;1.00;;;;;;5081478;28;20424;-79
2022/10/01 13:47:20;;;;;;;1.13;0.90;;;16.50;1.00;;;;;;5093233;28;20431;-80
2022/10/01 13:50:02;;;;;;;2.00;0.80;;;16.70;1.00;;;;;;5077773;28;20407;-80
2022/10/01 13:52:35;;;;;;;0.90;0.80;;;16.50;1.00;;;;;;5082159;28;20846;-80
2022/10/01 13:55:41;;;;;;;1.13;0.70;;;16.50;1.00;;;;;;5082249;28;20488;-81
2022/10/01 14:01:37;;;;;;;0.70;0.70;;;16.50;1.00;;;;;;5074404;28;20973;-79
2022/10/01 14:04:34;;;;;;;1.10;1.00;;;16.60;1.00;;;;;;5076481;28;20417;-79
2022/10/01 14:07:14;;;;;;;2.67;0.70;;;16.70;1.00;;;;;;5075641;28;20399;-80
2022/10/01 14:09:44;;;;;;;0.60;0.60;;;16.70;1.00;;;;;;5076122;28;20417;-78
2022/10/01 14:18:31;;;;;;;1.23;0.70;;;16.80;1.00;;;;;;5074997;28;20370;-81
2022/10/01 14:21:17;;;;;;;7.10;0.70;;;16.80;1.00;;;;;;5074302;28;20400;-78
2022/10/01 14:24:16;;;;;;;1.20;0.80;;;16.70;1.00;;;;;;5073865;28;20368;-78
2022/10/01 14:27:13;;;;;;;0.70;0.70;;;16.70;1.00;;;;;;5083006;28;20423;-79
2022/10/01 14:29:50;;;;;;;1.13;0.70;;;16.90;1.00;;;;;;5073883;28;20827;-79
2022/10/01 14:32:32;;;;;;;2.20;0.83;;;17.10;1.00;;;;;;5081478;28;20443;-80
2022/10/01 14:35:19;;;;;;;2.83;0.70;;;17.10;1.00;;;;;;5077366;28;20896;-79
2022/10/01 14:37:48;;;;;;;1.83;0.70;;;17.10;1.00;;;;;;5076516;28;20391;-82
2022/10/01 14:40:53;;;;;;;4.80;0.67;;;17.20;1.00;;;;;;5082077;28;20506;-82
2022/10/01 14:43:30;;;;;;;2.23;0.73;;;17.30;1.00;;;;;;5079251;28;20403;-85
2022/10/01 14:46:40;;;;;;;1.40;0.70;;;17.20;1.00;;;;;;5081049;28;20404;-90
2022/10/01 14:49:23;;;;;;;1.00;0.80;;;17.20;1.00;;;;;;5075091;28;20469;-89
2022/10/01 14:52:17;;;;;;;1.00;0.80;;;17.10;1.00;;;;;;5077294;28;20425;-89
2022/10/01 14:58:04;;;;;;;2.50;0.50;;;17.40;1.00;;;;;;5085472;28;20433;-86
2022/10/01 15:00:54;;;;;;;0.60;0.60;;;17.40;1.00;;;;;;5077548;28;20920;-87
2022/10/01 15:03:50;;;;;;;0.83;0.60;;;17.60;1.00;;;;;;5080753;28;20168;-79
2022/10/01 15:06:40;;;;;;;3.33;0.80;;;17.50;1.00;;;;;;5001757;28;20858;-76
2022/10/01 15:09:14;;;;;;;5.43;4.93;;;17.70;1.00;;;;;;5011441;28;20432;-76
2022/10/01 15:11:42;;;;;;;0.90;0.90;;;17.60;1.00;;;;;;5010050;28;20429;-76
2022/10/01 15:14:21;;;;;;;0.90;0.70;;;17.60;1.00;;;;;;5003826;28;20404;-76
2022/10/01 15:16:48;;;;;;;0.77;0.73;;;17.50;1.00;;;;;;4998368;28;20422;-76
2022/10/01 15:19:31;;;;;;;1.23;0.60;;;17.50;1.00;;;;;;5011681;28;20425;-85
2022/10/01 15:22:00;;;;;;;0.97;0.60;;;17.40;1.00;;;;;;4999277;28;20449;-84
2022/10/01 15:24:39;;;;;;;2.40;1.60;;;17.40;1.00;;;;;;4992396;28;20427;-84
2022/10/01 15:30:43;;;;;;;6.13;4.40;;;17.40;1.00;;;;;;5002982;28;20944;-94
2022/10/01 15:33:47;;;;;;;26.17;18.80;;;17.40;1.00;;;;;;4995601;28;20488;-95
2022/10/01 15:39:39;;;;;;;7.37;3.70;;;17.40;1.00;;;;;;4993260;28;20345;-92
2022/10/01 15:42:53;;;;;;;7.07;3.50;;;17.50;1.00;;;;;;5022597;28;20430;-93
2022/10/01 15:45:59;;;;;;;5.90;1.10;;;17.50;1.00;;;;;;5084847;28;20444;-91
2022/10/01 15:54:59;;;;;;;5.63;0.97;;;17.10;1.00;;;;;;5082666;28;20818;-91
2022/10/01 15:57:30;;;;;;;1.40;0.83;;;17.00;1.00;;;;;;5079433;28;20393;-91
2022/10/01 16:00:25;;;;;;;3.00;1.20;;;17.00;1.00;;;;;;5089140;28;20440;-90
2022/10/01 16:02:55;;;;;;;4.53;1.10;;;17.20;1.00;;;;;;5081539;28;20411;-75
2022/10/01 16:05:25;;;;;;;1.43;0.90;;;17.40;1.00;;;;;;5084458;28;20431;-77
2022/10/01 16:07:57;;;;;;;7.10;0.97;;;17.50;1.00;;;;;;5085289;28;20420;-76
2022/10/01 16:10:33;;;;;;;9.43;1.20;;;17.30;1.00;;;;;;5090872;28;20755;-76
2022/10/01 16:12:59;;;;;;;3.90;1.20;;;17.10;1.00;;;;;;5078650;28;20417;-75
2022/10/01 16:15:27;;;;;;;2.57;1.03;;;17.00;1.00;;;;;;5085033;28;20944;-75
2022/10/01 16:17:54;;;;;;;4.23;1.37;;;17.00;1.00;;;;;;5094621;28;20176;-75
2022/10/01 16:20:42;;;;;;;4.43;1.23;;;16.90;1.00;;;;;;5081543;28;20450;-75
2022/10/01 16:23:39;;;;;;;2.73;1.20;;;16.80;1.00;;;;;;5079956;28;20422;-76
2022/10/01 16:26:36;;;;;;;7.60;1.23;;;16.60;1.00;;;;;;5076125;28;20380;-77
2022/10/01 16:29:25;;;;;;;2.63;1.30;;;16.50;1.00;;;;;;4990446;28;20477;-76
2022/10/01 16:31:54;;;;;;;2.93;1.40;;;16.30;1.00;;;;;;4990646;28;20444;-76
2022/10/01 16:34:20;;;;;;;2.00;1.00;;;16.30;1.00;;;;;;4994886;28;20866;-76
2022/10/01 16:36:46;;;;;;;6.57;1.30;;;16.30;1.00;;;;;;4997548;28;20408;-75
2022/10/01 16:39:13;;;;;;;3.60;1.00;;;16.20;1.00;;;;;;5002520;28;20199;-76
2022/10/01 16:41:41;;;;;;;7.57;1.20;;;16.10;1.00;;;;;;5007335;28;20180;-76
2022/10/01 16:44:18;;;;;;;3.63;1.30;;;16.00;1.00;;;;;;4996388;28;20369;-76
2022/10/01 16:46:55;;;;;;;3.37;1.67;;;16.10;1.00;;;;;;5013993;28;20416;-76
2022/10/01 16:49:24;;;;;;;6.90;1.50;;;16.00;1.00;;;;;;5011096;28;20491;-77
2022/10/01 16:51:54;;;;;;;3.37;1.20;;;16.00;1.00;;;;;;5008568;28;20434;-76
2022/10/01 16:54:29;;;;;;;4.47;0.90;;;15.90;1.00;;;;;;4998507;28;20435;-76
2022/10/01 16:57:05;;;;;;;4.00;1.10;;;15.90;1.00;;;;;;5002291;28;20519;-75
2022/10/01 16:59:32;;;;;;;2.40;0.97;;;15.90;1.00;;;;;;5001584;28;20481;-75
2022/10/01 17:02:12;;;;;;;3.23;1.20;;;15.90;1.00;;;;;;5003893;28;20656;-75
2022/10/01 17:04:38;;;;;;;2.43;1.30;;;15.80;1.00;;;;;;5009463;28;20427;-75
2022/10/01 17:07:04;;;;;;;4.53;1.47;;;15.80;1.00;;;;;;5076068;28;20451;-75
2022/10/01 17:09:30;;;;;;;8.17;1.70;;;15.80;1.00;;;;;;5086966;28;20171;-74
2022/10/01 17:11:57;;;;;;;2.90;1.20;;;15.80;1.00;;;;;;5077596;28;20980;-75
2022/10/01 17:14:23;;;;;;;1.83;1.40;;;15.70;1.00;;;;;;5083241;28;20403;-74
2022/10/01 17:16:49;;;;;;;5.03;1.10;;;15.60;1.00;;;;;;5080847;28;20487;-75
2022/10/01 17:19:20;;;;;;;2.80;1.30;;;15.70;1.00;;;;;;5082833;28;20897;-76
2022/10/01 17:21:46;;;;;;;4.23;1.10;;;15.50;1.00;;;;;;5083197;28;20409;-76
2022/10/01 17:27:41;;;;;;;6.03;1.73;;;15.40;1.00;;;;;;5081141;28;20251;-82
2022/10/01 17:30:23;;;;;;;4.10;1.80;;;15.40;1.00;;;;;;5090151;28;20489;-82
2022/10/01 17:33:12;;;;;;;36.43;21.83;;;15.30;1.00;;;;;;5080692;28;20416;-83
2022/10/01 17:35:47;;;;;;;14.23;6.00;;;15.30;1.00;;;;;;5083391;28;20420;-84
2022/10/01 17:38:13;;;;;;;2.90;1.40;;;15.30;1.00;;;;;;5084039;28;20420;-79
2022/10/01 17:40:40;;;;;;;3.33;1.67;;;15.30;1.00;;;;;;5089097;28;20794;-78
2022/10/01 17:43:17;;;;;;;2.30;1.63;;;15.30;1.00;;;;;;5084583;28;20269;-78
2022/10/01 17:46:00;;;;;;;4.63;2.20;;;15.20;1.00;;;;;;5083728;28;20427;-78
2022/10/01 17:48:47;;;;;;;9.00;4.10;;;15.10;1.00;;;;;;5081953;28;20579;-78
2022/10/01 17:51:30;;;;;;;3.77;1.40;;;15.10;1.00;;;;;;5086586;28;20495;-87
2022/10/01 17:57:53;;;;;;;8.50;2.57;;;15.00;1.00;;;;;;5095113;28;20366;-88
2022/10/01 18:01:04;;;;;;;8.90;2.13;;;15.10;1.00;;;;;;5089357;28;20482;-87
2022/10/01 18:03:29;;;;;;;5.63;1.30;;;15.00;1.00;;;;;;5075444;28;20429;-90
2022/10/01 18:06:02;;;;;;;6.30;1.83;;;15.00;1.00;;;;;;5075942;28;20778;-80
2022/10/01 18:08:30;;;;;;;4.77;1.40;;;15.00;1.00;;;;;;5089912;28;20198;-80
2022/10/01 18:11:18;;;;;;;3.23;1.47;;;14.90;1.00;;;;;;5074313;28;20490;-79
2022/10/01 18:13:44;;;;;;;5.07;1.90;;;14.80;1.00;;;;;;5082262;28;20428;-78
2022/10/01 18:16:13;;;;;;;6.73;1.90;;;14.80;1.00;;;;;;5087493;28;20470;-79